Terminal Aerodrome Forecast
Issued by NWS La Crosse, WI

Home | Current Version | Previous Version | Text Only | Print | Product List | Glossary On
Versions: 1 2 3 4 5 6 7 8 9 10 11 12 13 14
000
FTUS43 KARX 210216 AAA
TAFLSE
TAF AMD
KLSE 210216Z 2102/2124 VRB03KT 5SM BR BKN050
     FM210800 VRB03KT 5SM -SHRA BR BKN040
     FM211600 27007KT P6SM BKN045
     FM211800 31012G21KT P6SM SCT045=

USA.gov is the U.S. government's official web portal to all federal, state and local government web resources and services.